Time;durP1;ratioP1;P1;durP2;ratioP2;P2;SDS_P1;SDS_P2;PMS_P1;PMS_P2;Temp;Humidity;BMP_temperature;BMP_pressure;BME280_temperature;BME280_humidity;BME280_pressure;Samples;Min_cycle;Max_cycle;Signal;HPM_P1;HPM_P2
2024/04/10 00:01:41;;;;;;;8.40;1.20;;;8.60;99.90;;;;;;5353448;26;20025;-72
2024/04/10 00:04:08;;;;;;;9.02;1.17;;;8.70;99.90;;;;;;5357030;26;20037;-72
2024/04/10 00:06:35;;;;;;;12.30;1.42;;;8.60;99.90;;;;;;5364161;26;20029;-72
2024/04/10 00:09:03;;;;;;;8.55;1.50;;;8.60;99.90;;;;;;5355278;26;20108;-72
2024/04/10 00:11:30;;;;;;;9.20;1.13;;;8.50;99.90;;;;;;5348629;26;20033;-72
2024/04/10 00:13:57;;;;;;;9.93;1.50;;;8.60;99.90;;;;;;5357639;26;20642;-72
2024/04/10 00:16:24;;;;;;;10.20;1.88;;;8.50;99.90;;;;;;5364023;26;20036;-73
2024/04/10 00:18:51;;;;;;;9.88;1.52;;;8.50;99.90;;;;;;5357458;26;20044;-73
2024/04/10 00:21:18;;;;;;;9.23;1.45;;;8.50;99.90;;;;;;5355456;26;20032;-72
2024/04/10 00:23:45;;;;;;;9.05;1.50;;;8.50;99.90;;;;;;5358528;26;20029;-72
2024/04/10 00:26:13;;;;;;;10.70;1.42;;;8.40;99.90;;;;;;5358456;26;20036;-72
2024/04/10 00:28:40;;;;;;;7.05;1.83;;;8.40;99.90;;;;;;5356089;26;20036;-72
2024/04/10 00:31:07;;;;;;;11.20;2.10;;;8.30;99.90;;;;;;5369462;26;20018;-73
2024/04/10 00:33:38;;;;;;;10.60;1.15;;;8.40;99.90;;;;;;5368527;26;20028;-73
2024/04/10 00:36:05;;;;;;;5.22;1.20;;;8.30;99.90;;;;;;5359662;26;20450;-72
2024/04/10 00:38:32;;;;;;;8.23;1.10;;;8.40;99.90;;;;;;5364598;26;20504;-72
2024/04/10 00:41:03;;;;;;;7.10;0.70;;;8.40;99.90;;;;;;5368881;26;20040;-72
2024/04/10 00:43:30;;;;;;;8.45;1.25;;;8.50;99.90;;;;;;5362855;26;20052;-73
2024/04/10 00:45:58;;;;;;;6.47;0.80;;;8.50;99.90;;;;;;5372520;26;20020;-72
2024/04/10 00:48:25;;;;;;;9.13;0.88;;;8.50;99.90;;;;;;5355625;26;20101;-72
2024/04/10 00:50:53;;;;;;;5.88;0.80;;;8.60;99.90;;;;;;5360479;26;20032;-73
2024/04/10 00:53:21;;;;;;;3.75;0.68;;;8.60;99.90;;;;;;5358999;26;20040;-72
2024/04/10 00:55:48;;;;;;;9.15;1.00;;;8.60;99.90;;;;;;5360284;26;20019;-73
2024/04/10 00:58:15;;;;;;;9.20;0.80;;;8.60;99.90;;;;;;5357676;26;20497;-72
2024/04/10 01:00:42;;;;;;;7.68;0.57;;;8.70;99.90;;;;;;5361323;26;20025;-72
2024/04/10 01:03:10;;;;;;;4.63;0.50;;;8.70;99.90;;;;;;5359757;26;20039;-72
2024/04/10 01:05:37;;;;;;;5.72;0.50;;;8.70;99.90;;;;;;5352981;26;20024;-72
2024/04/10 01:08:05;;;;;;;6.88;1.40;;;8.80;99.90;;;;;;5352360;26;20033;-72
2024/04/10 01:10:32;;;;;;;6.50;0.98;;;8.80;99.90;;;;;;5362458;26;20491;-72
2024/04/10 01:13:00;;;;;;;6.05;1.10;;;8.90;99.90;;;;;;5360980;26;20032;-72
2024/04/10 01:15:27;;;;;;;2.33;0.43;;;8.90;99.90;;;;;;5362154;26;20025;-72
2024/04/10 01:17:54;;;;;;;2.90;0.20;;;8.90;99.90;;;;;;5356000;26;20032;-73
2024/04/10 01:20:21;;;;;;;6.88;0.30;;;8.90;99.90;;;;;;5360629;26;20492;-73
2024/04/10 01:22:50;;;;;;;7.00;0.40;;;8.90;99.90;;;;;;5361351;26;20453;-73
2024/04/10 01:25:17;;;;;;;1.85;0.15;;;8.90;99.90;;;;;;5366273;26;20047;-74
2024/04/10 01:27:45;;;;;;;4.55;0.30;;;8.80;99.90;;;;;;5362339;26;20486;-74
2024/04/10 01:30:12;;;;;;;5.68;0.35;;;8.70;99.90;;;;;;5363630;26;20032;-75
2024/04/10 01:32:39;;;;;;;1.55;0.20;;;8.70;99.90;;;;;;5359941;26;20033;-75
2024/04/10 01:35:06;;;;;;;1.98;0.20;;;8.60;99.90;;;;;;5366352;26;20031;-76
2024/04/10 01:37:33;;;;;;;2.20;0.20;;;8.50;99.90;;;;;;5366145;26;20028;-75
2024/04/10 01:40:00;;;;;;;2.42;0.75;;;8.50;99.90;;;;;;5355004;26;20496;-76
2024/04/10 01:42:27;;;;;;;3.28;0.40;;;8.40;99.90;;;;;;5357657;26;20033;-76
2024/04/10 01:44:54;;;;;;;1.27;0.20;;;8.40;99.90;;;;;;5362639;26;20029;-76
2024/04/10 01:47:21;;;;;;;3.38;0.17;;;8.40;99.90;;;;;;5366125;26;20380;-75
2024/04/10 01:49:50;;;;;;;2.20;0.10;;;8.30;99.90;;;;;;5353615;26;20064;-74
2024/04/10 01:52:17;;;;;;;4.45;0.20;;;8.30;99.90;;;;;;5356625;26;20357;-74
2024/04/10 01:54:46;;;;;;;1.67;0.20;;;8.20;99.90;;;;;;5364757;26;20026;-74
2024/04/10 01:57:13;;;;;;;1.75;0.28;;;8.30;99.90;;;;;;5358364;26;20040;-73
2024/04/10 01:59:39;;;;;;;0.68;0.10;;;8.30;99.90;;;;;;5369504;26;20030;-73
2024/04/10 02:02:06;;;;;;;1.92;0.20;;;8.30;99.90;;;;;;5357818;26;20094;-73
2024/04/10 02:04:34;;;;;;;2.05;0.35;;;8.20;99.90;;;;;;5358483;26;20033;-73
2024/04/10 02:07:01;;;;;;;2.53;0.10;;;8.20;99.90;;;;;;5368689;26;20014;-73
2024/04/10 02:09:28;;;;;;;2.65;0.10;;;8.20;99.90;;;;;;5353346;26;20094;-73
2024/04/10 02:11:56;;;;;;;0.55;0.10;;;8.10;99.90;;;;;;5364316;26;20041;-72
2024/04/10 02:14:23;;;;;;;0.75;0.13;;;8.10;99.90;;;;;;5363584;26;20476;-72
2024/04/10 02:16:50;;;;;;;0.70;0.00;;;8.00;99.90;;;;;;5364649;26;20020;-73
2024/04/10 02:19:17;;;;;;;0.10;0.00;;;8.00;99.90;;;;;;5366261;26;20032;-72
2024/04/10 02:21:44;;;;;;;0.63;0.10;;;8.00;99.90;;;;;;5361867;26;20028;-72
2024/04/10 02:24:11;;;;;;;1.52;0.30;;;8.00;99.90;;;;;;5362135;26;20364;-72
2024/04/10 02:26:38;;;;;;;1.05;0.10;;;8.00;99.90;;;;;;5359203;26;20044;-72
2024/04/10 02:29:09;;;;;;;1.20;0.10;;;7.90;99.90;;;;;;5367201;26;20028;-72
2024/04/10 02:31:36;;;;;;;1.25;0.10;;;7.90;99.90;;;;;;5358656;26;20380;-72
2024/04/10 02:34:03;;;;;;;0.38;0.10;;;7.80;99.90;;;;;;5366594;26;20029;-72
2024/04/10 02:36:30;;;;;;;0.73;0.10;;;7.90;99.90;;;;;;5359375;26;19996;-73
2024/04/10 02:38:57;;;;;;;1.38;0.22;;;7.80;99.90;;;;;;5375568;26;20024;-73
2024/04/10 02:41:24;;;;;;;2.75;0.25;;;7.80;99.90;;;;;;5345509;26;20374;-72
2024/04/10 02:43:51;;;;;;;3.70;0.52;;;7.80;99.90;;;;;;5359329;26;20036;-72
2024/04/10 02:46:18;;;;;;;2.17;0.20;;;7.80;99.90;;;;;;5356881;26;20024;-73
2024/04/10 02:48:45;;;;;;;3.45;0.30;;;7.80;99.90;;;;;;5356975;26;20037;-73
2024/04/10 02:51:12;;;;;;;4.15;0.40;;;7.80;99.90;;;;;;5352746;26;20036;-73
2024/04/10 02:53:38;;;;;;;4.75;0.50;;;7.80;99.90;;;;;;5365977;26;20030;-72
2024/04/10 02:56:07;;;;;;;3.60;0.70;;;7.80;99.90;;;;;;5357953;26;20032;-72
2024/04/10 02:58:34;;;;;;;6.82;0.98;;;7.70;99.90;;;;;;5359802;26;20039;-73
2024/04/10 03:01:01;;;;;;;4.15;0.52;;;7.80;99.90;;;;;;5358908;26;20035;-72
2024/04/10 03:03:28;;;;;;;5.20;1.20;;;7.80;99.90;;;;;;5358736;26;19996;-73
2024/04/10 03:06:06;;;;;;;6.35;1.02;;;7.80;99.90;;;;;;5360552;26;20024;-73
2024/04/10 03:08:34;;;;;;;6.50;0.98;;;7.80;99.90;;;;;;5364353;26;20377;-73
2024/04/10 03:11:04;;;;;;;9.13;1.88;;;7.80;99.90;;;;;;5363203;26;20025;-73
2024/04/10 03:13:32;;;;;;;7.20;1.08;;;7.70;99.90;;;;;;5362418;26;20812;-73
2024/04/10 03:15:59;;;;;;;9.80;1.38;;;7.80;99.90;;;;;;5364361;26;20032;-72
2024/04/10 03:20:04;;;;;;;6.10;1.10;;;7.80;99.90;;;;;;5595146;25;19934;-72
2024/04/10 03:22:32;;;;;;;7.82;1.20;;;7.70;99.90;;;;;;5538564;25;20041;-72
2024/04/10 03:24:58;;;;;;;7.10;1.42;;;7.70;99.90;;;;;;5561044;25;20036;-72
2024/04/10 03:27:25;;;;;;;10.95;1.55;;;7.70;99.90;;;;;;5500384;25;20071;-72
2024/04/10 03:29:52;;;;;;;6.10;1.60;;;7.80;99.90;;;;;;5522899;25;20018;-72
2024/04/10 03:32:19;;;;;;;8.48;1.52;;;7.70;99.90;;;;;;5525013;25;20369;-72
2024/04/10 03:34:46;;;;;;;6.43;1.67;;;7.80;99.90;;;;;;5524894;25;20034;-72
2024/04/10 03:37:13;;;;;;;12.15;1.90;;;7.70;99.90;;;;;;5518568;25;20029;-72
2024/04/10 03:39:41;;;;;;;14.40;2.47;;;7.80;99.90;;;;;;5530316;25;20037;-72
2024/04/10 03:42:09;;;;;;;11.30;2.25;;;7.90;99.90;;;;;;5523487;25;20029;-71
2024/04/10 03:44:35;;;;;;;12.77;2.55;;;7.90;99.90;;;;;;5521505;25;20033;-72
2024/04/10 03:47:02;;;;;;;9.68;2.08;;;8.00;99.90;;;;;;5528499;25;20026;-72
2024/04/10 03:49:29;;;;;;;12.63;2.22;;;7.90;99.90;;;;;;5523809;25;20046;-72
2024/04/10 03:51:56;;;;;;;11.05;2.75;;;8.00;99.90;;;;;;5532811;25;20025;-72
2024/04/10 03:54:23;;;;;;;12.07;2.00;;;7.90;99.90;;;;;;5524346;25;20021;-72
2024/04/10 03:56:50;;;;;;;14.63;2.50;;;7.90;99.90;;;;;;5523388;25;20464;-72
2024/04/10 03:59:17;;;;;;;9.77;1.77;;;7.90;99.90;;;;;;5524508;25;20017;-72
2024/04/10 04:01:44;;;;;;;11.98;2.25;;;7.80;99.90;;;;;;5495080;25;20004;-72
2024/04/10 04:04:11;;;;;;;11.32;2.53;;;7.80;99.90;;;;;;5520193;25;20025;-72
2024/04/10 04:06:39;;;;;;;12.95;2.50;;;7.70;99.90;;;;;;5492264;25;20022;-72
2024/04/10 04:09:08;;;;;;;12.25;2.63;;;7.70;99.90;;;;;;5516133;25;20034;-72
2024/04/10 04:11:36;;;;;;;15.65;2.40;;;7.70;99.90;;;;;;5520718;25;20026;-72
2024/04/10 04:14:05;;;;;;;10.18;2.67;;;7.70;99.90;;;;;;5484907;25;20033;-72
2024/04/10 04:16:33;;;;;;;11.55;2.95;;;7.60;99.90;;;;;;5515040;25;20043;-72
2024/04/10 04:19:01;;;;;;;11.25;2.13;;;7.60;99.90;;;;;;5519739;25;20033;-72
2024/04/10 04:21:28;;;;;;;13.82;2.67;;;7.50;99.90;;;;;;5517474;25;20018;-72
2024/04/10 04:23:56;;;;;;;10.55;2.47;;;7.50;99.90;;;;;;5517862;25;20378;-73
2024/04/10 04:26:23;;;;;;;15.82;3.08;;;7.50;99.90;;;;;;5520631;25;20030;-73
2024/04/10 04:28:50;;;;;;;12.77;2.60;;;7.50;99.90;;;;;;5530548;25;20040;-73
2024/04/10 04:31:18;;;;;;;13.88;2.92;;;7.50;99.90;;;;;;5499944;26;20037;-72
2024/04/10 04:33:45;;;;;;;15.55;3.03;;;7.40;99.90;;;;;;5509802;26;20023;-72
2024/04/10 04:36:12;;;;;;;14.30;2.90;;;7.50;99.90;;;;;;5462966;26;20025;-72
2024/04/10 04:38:39;;;;;;;18.55;3.35;;;7.50;99.90;;;;;;5508424;26;20030;-72
2024/04/10 04:41:06;;;;;;;11.75;2.90;;;7.60;99.90;;;;;;5500797;26;20021;-72
2024/04/10 04:43:33;;;;;;;14.45;3.00;;;7.50;99.90;;;;;;5479382;26;20022;-72
2024/04/10 04:46:02;;;;;;;18.15;3.45;;;7.60;99.90;;;;;;5486926;26;20477;-73
2024/04/10 04:48:29;;;;;;;18.30;3.95;;;7.70;99.90;;;;;;5479587;26;20276;-73
2024/04/10 04:50:56;;;;;;;16.23;3.72;;;7.70;99.90;;;;;;5469074;26;20072;-72
2024/04/10 04:53:23;;;;;;;12.27;3.10;;;7.70;99.90;;;;;;5499343;26;20033;-72
2024/04/10 04:55:50;;;;;;;14.52;2.80;;;7.60;99.90;;;;;;5486335;26;20026;-72
2024/04/10 04:58:17;;;;;;;19.80;4.32;;;7.70;99.90;;;;;;5503387;26;20026;-72
2024/04/10 05:00:44;;;;;;;17.83;3.22;;;7.70;99.90;;;;;;5469930;26;19998;-72
2024/04/10 05:04:54;;;;;;;17.80;3.42;;;7.70;99.90;;;;;;5501930;26;20369;-72
2024/04/10 05:05:58;;;;;;;13.52;3.28;;;7.60;99.90;;;;;;5504567;26;20029;-73
2024/04/10 05:08:25;;;;;;;13.38;3.60;;;7.60;99.90;;;;;;5503415;26;20037;-73
2024/04/10 05:10:53;;;;;;;17.23;3.67;;;7.60;99.90;;;;;;5501721;26;20033;-73
2024/04/10 05:13:20;;;;;;;20.52;4.40;;;7.60;99.90;;;;;;5481857;26;20025;-73
2024/04/10 05:15:47;;;;;;;20.95;4.35;;;7.50;99.90;;;;;;5507908;26;20493;-73
2024/04/10 05:18:14;;;;;;;19.27;3.47;;;7.60;99.90;;;;;;5476677;26;20025;-73
2024/04/10 05:20:41;;;;;;;15.15;3.40;;;7.60;99.90;;;;;;5504300;26;20473;-73
2024/04/10 05:23:07;;;;;;;20.40;4.28;;;7.50;99.90;;;;;;5467875;26;20030;-73
2024/04/10 05:25:35;;;;;;;11.75;3.00;;;7.60;99.90;;;;;;5512467;26;20025;-73
2024/04/10 05:28:02;;;;;;;19.48;3.65;;;7.50;99.90;;;;;;5467977;26;20518;-73
2024/04/10 05:30:29;;;;;;;16.33;4.10;;;7.50;99.90;;;;;;5501897;26;20482;-73
2024/04/10 05:32:56;;;;;;;14.25;3.28;;;7.50;99.90;;;;;;5511523;26;20049;-73
2024/04/10 05:35:25;;;;;;;21.50;3.85;;;7.50;99.90;;;;;;5510049;26;20433;-73
2024/04/10 05:37:52;;;;;;;17.48;4.13;;;7.70;99.90;;;;;;5505792;26;20037;-73
2024/04/10 05:40:19;;;;;;;19.23;3.78;;;7.60;99.90;;;;;;5513415;26;20026;-73
2024/04/10 05:42:46;;;;;;;21.08;3.83;;;7.60;99.90;;;;;;5505980;26;20103;-73
2024/04/10 05:45:13;;;;;;;19.40;3.65;;;7.70;99.90;;;;;;5505422;26;20525;-73
2024/04/10 05:47:43;;;;;;;24.95;4.05;;;7.80;99.90;;;;;;5496537;26;20026;-73
2024/04/10 05:50:10;;;;;;;15.15;4.85;;;7.80;99.90;;;;;;5504154;26;20025;-74
2024/04/10 05:52:41;;;;;;;22.35;4.18;;;8.00;99.90;;;;;;5497444;26;20053;-72
2024/04/10 05:55:09;;;;;;;14.57;3.60;;;8.10;99.90;;;;;;5505011;26;20381;-73
2024/04/10 05:57:36;;;;;;;20.27;3.72;;;8.30;99.90;;;;;;5499518;26;20026;-72
2024/04/10 06:00:04;;;;;;;15.32;3.30;;;8.40;99.90;;;;;;5466695;26;19998;-73
2024/04/10 06:02:38;;;;;;;19.33;3.95;;;8.60;99.90;;;;;;5507492;26;20040;-72
2024/04/10 06:05:06;;;;;;;14.88;3.47;;;8.60;99.90;;;;;;5501968;26;20041;-73
2024/04/10 06:07:35;;;;;;;14.45;3.45;;;8.80;99.90;;;;;;5470982;26;20027;-72
2024/04/10 06:10:04;;;;;;;22.05;4.70;;;8.80;99.90;;;;;;5475466;26;20022;-72
2024/04/10 06:12:31;;;;;;;17.02;4.20;;;8.90;99.90;;;;;;5466647;26;20037;-73
2024/04/10 06:14:58;;;;;;;14.38;4.05;;;9.00;99.90;;;;;;5482148;26;20026;-72
2024/04/10 06:17:26;;;;;;;17.48;4.05;;;9.10;99.90;;;;;;5496505;26;20033;-72
2024/04/10 06:19:56;;;;;;;13.00;3.20;;;9.20;99.90;;;;;;5501674;26;20004;-72
2024/04/10 06:22:24;;;;;;;18.52;3.80;;;9.20;99.90;;;;;;5510298;26;20007;-72
2024/04/10 06:24:54;;;;;;;18.60;3.92;;;9.30;99.90;;;;;;5506737;26;20024;-72
2024/04/10 06:27:21;;;;;;;14.30;4.00;;;9.40;99.90;;;;;;5505049;26;20025;-72
2024/04/10 06:29:48;;;;;;;20.02;4.30;;;9.50;99.90;;;;;;5506418;26;20466;-73
2024/04/10 06:32:15;;;;;;;19.90;5.03;;;9.50;99.90;;;;;;5478121;26;20049;-73
2024/04/10 06:34:42;;;;;;;16.23;4.57;;;9.70;99.90;;;;;;5477653;26;20040;-72
2024/04/10 06:37:09;;;;;;;23.77;4.55;;;9.70;99.90;;;;;;5506160;26;20025;-73
2024/04/10 06:39:37;;;;;;;19.30;4.47;;;9.80;99.90;;;;;;5503457;26;19997;-73
2024/04/10 06:42:04;;;;;;;19.25;4.18;;;9.80;99.90;;;;;;5474399;26;20029;-73
2024/04/10 06:44:31;;;;;;;18.83;4.65;;;9.90;99.90;;;;;;5502198;26;20021;-73
2024/04/10 06:46:59;;;;;;;23.00;8.80;;;10.10;99.90;;;;;;5499907;26;20025;-72
2024/04/10 06:49:28;;;;;;;16.23;4.35;;;10.20;99.90;;;;;;5485826;26;20042;-73
2024/04/10 06:51:56;;;;;;;15.50;4.35;;;10.30;99.90;;;;;;5496827;26;20026;-73
2024/04/10 06:54:25;;;;;;;19.65;5.13;;;10.40;99.90;;;;;;5494490;26;20033;-73
2024/04/10 06:56:52;;;;;;;21.75;4.57;;;10.50;99.90;;;;;;5500772;26;20037;-73
2024/04/10 06:59:19;;;;;;;18.52;4.00;;;10.60;99.90;;;;;;5498746;26;20037;-73
2024/04/10 07:01:46;;;;;;;13.70;5.20;;;10.70;99.90;;;;;;5507245;26;20374;-74
2024/04/10 07:04:13;;;;;;;14.13;4.00;;;10.70;99.90;;;;;;5500782;26;20029;-73
2024/04/10 07:06:40;;;;;;;23.77;6.10;;;10.80;99.90;;;;;;5503249;26;20033;-74
2024/04/10 07:09:09;;;;;;;17.98;5.25;;;11.00;99.90;;;;;;5501067;26;20034;-73
2024/04/10 07:11:36;;;;;;;16.63;4.20;;;11.00;99.90;;;;;;5508254;26;20378;-73
2024/04/10 07:14:03;;;;;;;16.33;5.10;;;11.20;99.90;;;;;;5504390;26;20093;-73
2024/04/10 07:16:30;;;;;;;15.27;4.50;;;11.30;99.90;;;;;;5504931;26;20041;-74
2024/04/10 07:18:58;;;;;;;16.92;4.32;;;11.40;99.90;;;;;;5505323;26;20026;-73
2024/04/10 07:21:25;;;;;;;15.70;4.10;;;11.40;99.90;;;;;;5506637;26;20026;-73
2024/04/10 07:23:52;;;;;;;95.47;60.95;;;11.50;99.90;;;;;;5505643;26;20061;-73
2024/04/10 07:26:20;;;;;;;19.58;5.18;;;11.60;99.90;;;;;;5506897;26;20481;-73
2024/04/10 07:28:52;;;;;;;14.35;4.70;;;11.70;99.90;;;;;;5501710;26;20021;-73
2024/04/10 07:31:32;;;;;;;17.13;4.90;;;11.90;99.90;;;;;;5501703;26;20030;-73
2024/04/10 07:34:00;;;;;;;15.07;4.50;;;12.00;99.90;;;;;;5510538;26;20033;-73
2024/04/10 07:36:28;;;;;;;13.27;4.50;;;12.10;99.90;;;;;;5505658;26;20029;-73
2024/04/10 07:38:57;;;;;;;15.70;4.90;;;12.30;99.90;;;;;;5502309;26;20474;-73
2024/04/10 07:41:27;;;;;;;20.20;5.45;;;12.40;99.90;;;;;;5502534;26;20017;-73
2024/04/10 07:43:54;;;;;;;17.77;5.50;;;12.60;99.90;;;;;;5491855;26;20022;-73
2024/04/10 07:46:21;;;;;;;19.30;4.78;;;12.60;99.90;;;;;;5500515;26;20018;-73
2024/04/10 07:48:52;;;;;;;23.17;8.45;;;12.60;99.90;;;;;;5497420;26;20026;-73
2024/04/10 07:51:19;;;;;;;16.88;4.82;;;12.60;99.90;;;;;;5512491;26;20022;-73
2024/04/10 07:53:47;;;;;;;16.00;4.55;;;12.70;99.90;;;;;;5508857;26;20025;-73
2024/04/10 07:56:15;;;;;;;15.80;4.95;;;12.80;99.90;;;;;;5513516;26;20022;-73
2024/04/10 07:58:42;;;;;;;18.08;6.00;;;12.90;99.90;;;;;;5473906;26;20022;-73
2024/04/10 08:01:11;;;;;;;15.68;5.05;;;13.40;99.90;;;;;;5506558;26;20034;-73
2024/04/10 08:03:38;;;;;;;17.05;5.00;;;14.10;99.90;;;;;;5501278;26;20053;-73
2024/04/10 08:06:08;;;;;;;16.33;4.57;;;14.40;99.90;;;;;;5498428;26;20051;-73
2024/04/10 08:08:45;;;;;;;14.18;4.93;;;14.50;99.90;;;;;;5500125;26;20030;-73
2024/04/10 08:11:13;;;;;;;19.67;4.97;;;14.30;99.90;;;;;;5506136;26;20026;-73
2024/04/10 08:13:41;;;;;;;14.60;4.40;;;14.60;99.90;;;;;;5511089;26;20033;-73
2024/04/10 08:16:11;;;;;;;14.18;4.47;;;14.70;99.90;;;;;;5512264;26;20057;-73
2024/04/10 08:18:40;;;;;;;16.42;4.43;;;14.60;99.90;;;;;;5507968;26;20534;-73
2024/04/10 08:21:09;;;;;;;16.88;4.72;;;14.30;99.90;;;;;;5503139;26;20351;-73
2024/04/10 08:23:38;;;;;;;22.70;10.68;;;14.50;99.90;;;;;;5475807;26;20026;-74
2024/04/10 08:26:12;;;;;;;24.80;10.85;;;14.80;99.90;;;;;;5503128;26;20577;-73
2024/04/10 08:28:46;;;;;;;16.05;5.20;;;15.60;99.90;;;;;;5466818;26;20010;-74
2024/04/10 08:31:17;;;;;;;13.73;4.97;;;16.50;99.90;;;;;;5510742;26;20034;-74
2024/04/10 08:33:45;;;;;;;15.05;4.32;;;16.70;99.90;;;;;;5503698;26;20022;-74
2024/04/10 08:36:13;;;;;;;11.40;4.25;;;16.60;99.90;;;;;;5515852;26;20021;-74
2024/04/10 08:38:41;;;;;;;13.00;4.22;;;16.30;99.90;;;;;;5501738;26;20025;-74
2024/04/10 08:41:15;;;;;;;15.73;3.78;;;15.80;99.90;;;;;;5488083;26;20001;-74
2024/04/10 08:43:44;;;;;;;10.43;3.88;;;15.80;99.90;;;;;;5503264;26;20034;-74
2024/04/10 08:46:12;;;;;;;10.25;3.78;;;15.90;99.90;;;;;;5513985;26;20014;-74
2024/04/10 08:48:41;;;;;;;12.13;3.78;;;16.40;99.90;;;;;;5507364;26;20025;-74
2024/04/10 08:51:13;;;;;;;18.00;4.10;;;16.90;99.90;;;;;;5481741;26;20025;-74
2024/04/10 08:53:42;;;;;;;11.52;3.53;;;17.60;99.90;;;;;;5507086;26;20473;-74
2024/04/10 08:56:16;;;;;;;11.48;2.70;;;18.20;99.90;;;;;;5505658;26;20404;-74
2024/04/10 08:58:44;;;;;;;12.00;2.90;;;18.50;99.90;;;;;;5479774;26;20686;-74
2024/04/10 09:01:28;;;;;;;8.98;2.65;;;18.00;99.90;;;;;;5501765;26;20383;-74
2024/04/10 09:03:55;;;;;;;12.52;2.78;;;17.80;99.90;;;;;;5510489;26;20089;-74
2024/04/10 09:06:22;;;;;;;10.02;2.63;;;18.20;99.90;;;;;;5511569;26;20037;-74
2024/04/10 09:08:57;;;;;;;9.82;2.58;;;18.40;99.90;;;;;;5475797;26;20021;-74
2024/04/10 09:11:24;;;;;;;9.43;2.83;;;18.40;99.90;;;;;;5500384;26;20033;-74
2024/04/10 09:14:04;;;;;;;8.15;2.42;;;18.80;99.90;;;;;;5501038;26;20029;-74
2024/04/10 09:16:32;;;;;;;9.63;2.45;;;19.10;99.90;;;;;;5482080;26;20049;-72
2024/04/10 09:19:15;;;;;;;10.85;2.97;;;19.30;99.90;;;;;;5497315;26;20057;-72
2024/04/10 09:21:55;;;;;;;8.50;2.47;;;18.50;99.90;;;;;;5470208;26;20022;-73
2024/04/10 09:24:30;;;;;;;6.20;1.92;;;17.80;99.90;;;;;;5472525;26;20038;-73
2024/04/10 09:26:58;;;;;;;10.63;2.63;;;17.80;99.90;;;;;;5506060;26;20035;-72
2024/04/10 09:29:28;;;;;;;11.52;2.60;;;17.20;99.90;;;;;;5465283;26;20025;-73
2024/04/10 09:32:04;;;;;;;12.32;4.32;;;16.50;99.90;;;;;;5496121;26;20046;-73
2024/04/10 09:34:31;;;;;;;12.27;3.90;;;16.60;99.90;;;;;;5501519;26;20022;-73
2024/04/10 09:37:00;;;;;;;9.63;2.80;;;17.00;99.90;;;;;;5507966;26;20034;-73
2024/04/10 09:39:28;;;;;;;9.95;2.53;;;17.60;99.90;;;;;;5507414;26;21295;-73
2024/04/10 09:41:58;;;;;;;12.75;3.47;;;17.20;99.90;;;;;;5510759;26;20041;-73
2024/04/10 09:44:30;;;;;;;11.82;2.80;;;16.50;99.90;;;;;;5512722;26;20025;-73
2024/04/10 09:46:58;;;;;;;15.25;3.10;;;15.80;99.90;;;;;;5507429;26;20033;-73
2024/04/10 09:49:40;;;;;;;12.18;3.53;;;15.20;99.90;;;;;;5503019;26;20029;-72
2024/04/10 09:52:09;;;;;;;10.20;2.92;;;14.60;99.90;;;;;;5485928;26;20025;-72
2024/04/10 09:54:37;;;;;;;13.63;2.90;;;14.70;99.90;;;;;;5509405;26;20465;-73
2024/04/10 09:57:05;;;;;;;12.95;3.30;;;15.40;99.90;;;;;;5503370;26;20497;-73
2024/04/10 09:59:32;;;;;;;12.02;2.78;;;15.40;99.90;;;;;;5503714;26;20021;-73
2024/04/10 10:02:18;;;;;;;10.75;2.90;;;15.10;99.90;;;;;;5497036;26;19994;-72
2024/04/10 10:04:45;;;;;;;9.48;2.33;;;14.80;99.90;;;;;;5498685;26;20029;-72
2024/04/10 10:07:24;;;;;;;10.95;2.60;;;14.50;99.90;;;;;;5478563;26;19997;-73
2024/04/10 10:10:03;;;;;;;11.30;3.17;;;14.80;99.90;;;;;;5495247;26;20030;-72
2024/04/10 10:12:30;;;;;;;10.65;2.13;;;15.40;99.90;;;;;;5484380;26;20002;-73
2024/04/10 10:15:10;;;;;;;8.13;2.50;;;16.30;99.90;;;;;;5492614;26;20038;-73
2024/04/10 10:17:43;;;;;;;12.32;2.80;;;17.00;99.90;;;;;;5498118;26;20382;-73
2024/04/10 10:20:20;;;;;;;9.80;2.58;;;17.50;99.90;;;;;;5501834;26;20030;-73
2024/04/10 10:23:00;;;;;;;9.48;2.10;;;18.20;99.90;;;;;;5494007;26;20025;-73
2024/04/10 10:25:28;;;;;;;8.65;2.22;;;18.70;99.90;;;;;;5509918;26;20489;-74
2024/04/10 10:28:09;;;;;;;7.93;1.60;;;18.90;99.90;;;;;;5469840;26;20358;-73
2024/04/10 10:30:36;;;;;;;10.48;2.40;;;18.60;99.90;;;;;;5509221;26;20022;-73
2024/04/10 10:33:05;;;;;;;4.93;1.48;;;18.00;99.90;;;;;;5501826;26;20037;-73
2024/04/10 10:35:33;;;;;;;6.13;1.67;;;17.50;99.90;;;;;;5505475;26;20029;-73
2024/04/10 10:38:06;;;;;;;8.65;2.92;;;16.80;99.90;;;;;;5509281;26;20051;-73
2024/04/10 10:40:34;;;;;;;7.97;1.77;;;16.40;99.90;;;;;;5511757;26;20026;-73
2024/04/10 10:43:05;;;;;;;9.48;1.98;;;16.70;99.90;;;;;;5512815;26;20911;-73
2024/04/10 10:45:34;;;;;;;10.05;1.85;;;17.30;99.90;;;;;;5511170;26;20046;-72
2024/04/10 10:48:03;;;;;;;10.40;2.03;;;17.80;99.90;;;;;;5488016;26;20025;-72
2024/04/10 10:50:30;;;;;;;7.05;1.98;;;18.50;99.90;;;;;;5502878;26;20042;-73
2024/04/10 10:52:58;;;;;;;9.77;2.17;;;18.70;99.90;;;;;;5505753;26;20022;-72
2024/04/10 10:55:25;;;;;;;7.63;2.10;;;18.60;99.90;;;;;;5512001;26;20025;-73
2024/04/10 10:58:01;;;;;;;9.73;2.67;;;18.20;99.90;;;;;;5478548;26;20578;-72
2024/04/10 11:00:33;;;;;;;9.13;2.63;;;17.70;99.90;;;;;;5517180;26;20556;-73
2024/04/10 11:03:09;;;;;;;10.80;2.67;;;17.60;99.90;;;;;;5504090;26;20454;-72
2024/04/10 11:05:36;;;;;;;8.25;2.60;;;17.90;99.90;;;;;;5490374;26;20022;-73
2024/04/10 11:08:04;;;;;;;9.30;2.17;;;18.20;99.90;;;;;;5492923;26;20025;-73
2024/04/10 11:10:32;;;;;;;8.63;1.60;;;18.80;99.90;;;;;;5479778;26;20022;-73
2024/04/10 11:13:06;;;;;;;8.98;1.95;;;19.30;99.90;;;;;;5499047;26;20465;-73
2024/04/10 11:15:39;;;;;;;5.90;1.48;;;19.40;99.90;;;;;;5515044;26;20473;-73
2024/04/10 11:18:06;;;;;;;6.50;2.10;;;19.40;99.90;;;;;;5506460;26;20030;-74
2024/04/10 11:20:32;;;;;;;8.38;2.33;;;19.40;99.90;;;;;;5509821;26;20481;-74
2024/04/10 11:23:00;;;;;;;10.95;2.00;;;19.10;99.90;;;;;;5503599;26;20022;-74
2024/04/10 11:25:30;;;;;;;7.13;1.83;;;18.80;99.90;;;;;;5479522;26;20037;-74
2024/04/10 11:27:58;;;;;;;9.25;2.10;;;18.50;99.90;;;;;;5504921;26;20030;-74
2024/04/10 11:30:25;;;;;;;9.45;2.20;;;18.30;99.90;;;;;;5501938;26;20371;-74
2024/04/10 11:32:54;;;;;;;9.77;2.65;;;18.00;99.90;;;;;;5507249;26;20046;-74
2024/04/10 11:35:22;;;;;;;10.10;2.00;;;17.60;99.90;;;;;;5513163;26;20365;-74
2024/04/10 11:37:50;;;;;;;10.95;2.38;;;17.20;99.90;;;;;;5502643;26;20380;-75
2024/04/10 11:40:19;;;;;;;12.82;2.38;;;16.70;99.90;;;;;;5471783;26;20022;-74
2024/04/10 11:42:46;;;;;;;8.85;2.60;;;16.10;99.90;;;;;;5479207;26;20004;-74
2024/04/10 11:45:14;;;;;;;10.52;2.00;;;15.70;99.90;;;;;;5509245;26;20029;-74
2024/04/10 11:47:45;;;;;;;5.97;2.03;;;15.60;99.90;;;;;;5501781;26;20026;-74
2024/04/10 11:50:20;;;;;;;8.82;2.13;;;15.60;99.90;;;;;;5504022;26;20379;-74
2024/04/10 11:52:47;;;;;;;12.00;2.85;;;16.10;99.90;;;;;;5500014;26;20513;-74
2024/04/10 11:55:14;;;;;;;10.27;2.40;;;17.00;99.90;;;;;;5493847;26;20031;-72
2024/04/10 11:57:41;;;;;;;6.63;1.90;;;18.00;99.90;;;;;;5480690;26;20029;-73
2024/04/10 12:00:09;;;;;;;12.48;2.72;;;18.70;99.90;;;;;;5502745;26;20027;-74
2024/04/10 12:02:36;;;;;;;6.43;2.00;;;19.20;99.90;;;;;;5518041;26;20029;-73
2024/04/10 12:05:05;;;;;;;7.70;2.35;;;19.60;99.90;;;;;;5519963;26;20775;-74
2024/04/10 12:07:33;;;;;;;9.23;2.35;;;20.10;99.90;;;;;;5475905;26;20039;-74
2024/04/10 12:10:04;;;;;;;6.85;2.45;;;20.40;99.90;;;;;;5503643;26;20401;-73
2024/04/10 12:12:31;;;;;;;8.13;2.10;;;20.30;99.60;;;;;;5475308;26;20025;-73
2024/04/10 12:15:00;;;;;;;7.78;2.00;;;19.60;96.70;;;;;;5487750;26;20493;-73
2024/04/10 12:17:29;;;;;;;9.18;2.60;;;18.70;96.80;;;;;;5499534;26;20037;-72
2024/04/10 12:19:57;;;;;;;7.50;2.67;;;17.80;97.90;;;;;;5510245;26;20378;-73
2024/04/10 12:22:24;;;;;;;7.43;2.13;;;17.70;99.90;;;;;;5507167;26;20049;-73
2024/04/10 12:24:51;;;;;;;9.93;2.33;;;18.20;99.90;;;;;;5504769;26;20022;-73
2024/04/10 12:27:18;;;;;;;5.80;2.00;;;18.30;99.90;;;;;;5480116;26;20022;-74
2024/04/10 12:29:45;;;;;;;10.73;2.65;;;17.80;99.90;;;;;;5485522;26;20045;-73
2024/04/10 12:32:12;;;;;;;5.50;2.08;;;17.30;99.90;;;;;;5509463;26;20030;-73
2024/04/10 12:34:40;;;;;;;9.30;2.55;;;17.00;99.90;;;;;;5509710;26;20025;-73
2024/04/10 12:39:53;;;;;;;6.43;2.00;;;17.50;99.90;;;;;;5510243;26;20651;-73
2024/04/10 12:42:20;;;;;;;7.93;2.00;;;17.20;99.90;;;;;;5500053;26;20038;-74
2024/04/10 12:44:47;;;;;;;8.95;2.30;;;16.80;99.90;;;;;;5492118;26;20022;-73
2024/04/10 12:47:14;;;;;;;8.40;2.30;;;16.40;99.90;;;;;;5510151;26;20029;-73
2024/04/10 12:49:42;;;;;;;10.00;2.70;;;16.40;99.90;;;;;;5502401;26;20468;-74
2024/04/10 12:52:09;;;;;;;7.03;2.55;;;16.30;99.90;;;;;;5462971;26;20416;-73
2024/04/10 12:54:40;;;;;;;9.38;2.35;;;16.20;99.90;;;;;;5505495;26;20041;-73
2024/04/10 12:57:08;;;;;;;8.65;2.47;;;17.10;99.90;;;;;;5498104;26;19997;-74